sensor_id;sensor_type;location;lat;lon;timestamp;temperature;humidity
48836;DHT22;62581;47.342;7.908;2023-07-13T00:00:46;19.80;99.90
48836;DHT22;62581;47.342;7.908;2023-07-13T00:03:13;19.90;99.90
48836;DHT22;62581;47.342;7.908;2023-07-13T00:05:40;19.90;99.90
48836;DHT22;62581;47.342;7.908;2023-07-13T00:08:06;19.90;99.90
48836;DHT22;62581;47.342;7.908;2023-07-13T00:10:35;19.90;99.90
48836;DHT22;62581;47.342;7.908;2023-07-13T00:13:04;19.80;99.90
48836;DHT22;62581;47.342;7.908;2023-07-13T00:15:31;19.80;99.90
48836;DHT22;62581;47.342;7.908;2023-07-13T00:17:58;19.70;99.90
48836;DHT22;62581;47.342;7.908;2023-07-13T00:20:26;19.70;99.90
48836;DHT22;62581;47.342;7.908;2023-07-13T00:22:53;19.70;99.90
48836;DHT22;62581;47.342;7.908;2023-07-13T00:25:20;19.70;99.90
48836;DHT22;62581;47.342;7.908;2023-07-13T00:27:48;19.70;99.90
48836;DHT22;62581;47.342;7.908;2023-07-13T00:30:15;19.70;99.90
48836;DHT22;62581;47.342;7.908;2023-07-13T00:32:42;19.70;99.90
48836;DHT22;62581;47.342;7.908;2023-07-13T00:35:09;19.70;99.90
48836;DHT22;62581;47.342;7.908;2023-07-13T00:37:35;19.70;99.90
48836;DHT22;62581;47.342;7.908;2023-07-13T00:40:03;19.70;99.90
48836;DHT22;62581;47.342;7.908;2023-07-13T00:42:30;19.70;99.90
48836;DHT22;62581;47.342;7.908;2023-07-13T00:45:05;19.70;99.90
48836;DHT22;62581;47.342;7.908;2023-07-13T00:47:33;19.70;99.90
48836;DHT22;62581;47.342;7.908;2023-07-13T00:50:00;19.70;99.90
48836;DHT22;62581;47.342;7.908;2023-07-13T00:52:27;19.70;99.90
48836;DHT22;62581;47.342;7.908;2023-07-13T00:54:54;19.70;99.90
48836;DHT22;62581;47.342;7.908;2023-07-13T00:57:21;19.70;99.90
48836;DHT22;62581;47.342;7.908;2023-07-13T00:59:50;19.60;99.90
48836;DHT22;62581;47.342;7.908;2023-07-13T01:02:20;19.60;99.90
48836;DHT22;62581;47.342;7.908;2023-07-13T01:04:47;19.50;99.90
48836;DHT22;62581;47.342;7.908;2023-07-13T01:07:14;19.40;99.90
48836;DHT22;62581;47.342;7.908;2023-07-13T01:09:41;19.40;99.90
48836;DHT22;62581;47.342;7.908;2023-07-13T01:12:08;19.40;99.90
48836;DHT22;62581;47.342;7.908;2023-07-13T01:14:35;19.40;99.90
48836;DHT22;62581;47.342;7.908;2023-07-13T01:17:02;19.40;99.90
48836;DHT22;62581;47.342;7.908;2023-07-13T01:19:32;19.40;99.90
48836;DHT22;62581;47.342;7.908;2023-07-13T01:22:03;19.40;99.90
48836;DHT22;62581;47.342;7.908;2023-07-13T01:24:30;19.40;99.90
48836;DHT22;62581;47.342;7.908;2023-07-13T01:26:56;19.30;99.90
48836;DHT22;62581;47.342;7.908;2023-07-13T01:29:23;19.30;99.90
48836;DHT22;62581;47.342;7.908;2023-07-13T01:31:50;19.30;99.90
48836;DHT22;62581;47.342;7.908;2023-07-13T01:34:16;19.30;99.90
48836;DHT22;62581;47.342;7.908;2023-07-13T01:36:43;19.30;99.90
48836;DHT22;62581;47.342;7.908;2023-07-13T01:39:11;19.30;99.90
48836;DHT22;62581;47.342;7.908;2023-07-13T01:41:38;19.10;99.90
48836;DHT22;62581;47.342;7.908;2023-07-13T01:44:05;19.10;99.90
48836;DHT22;62581;47.342;7.908;2023-07-13T01:46:31;19.10;99.90
48836;DHT22;62581;47.342;7.908;2023-07-13T01:48:58;19.10;99.90
48836;DHT22;62581;47.342;7.908;2023-07-13T01:51:25;19.10;99.90
48836;DHT22;62581;47.342;7.908;2023-07-13T01:53:51;19.10;99.90
48836;DHT22;62581;47.342;7.908;2023-07-13T01:56:20;19.10;99.90
48836;DHT22;62581;47.342;7.908;2023-07-13T01:58:47;19.10;99.90
48836;DHT22;62581;47.342;7.908;2023-07-13T02:01:13;19.10;99.90
48836;DHT22;62581;47.342;7.908;2023-07-13T02:03:40;19.00;99.90
48836;DHT22;62581;47.342;7.908;2023-07-13T02:06:07;19.00;99.90
48836;DHT22;62581;47.342;7.908;2023-07-13T02:08:33;19.00;99.90
48836;DHT22;62581;47.342;7.908;2023-07-13T02:11:02;19.00;99.90
48836;DHT22;62581;47.342;7.908;2023-07-13T02:13:30;18.90;99.90
48836;DHT22;62581;47.342;7.908;2023-07-13T02:15:56;18.90;99.90
48836;DHT22;62581;47.342;7.908;2023-07-13T02:18:23;18.80;99.90
48836;DHT22;62581;47.342;7.908;2023-07-13T02:20:50;18.70;99.90
48836;DHT22;62581;47.342;7.908;2023-07-13T02:23:17;18.70;99.90
48836;DHT22;62581;47.342;7.908;2023-07-13T02:25:44;18.70;99.90
48836;DHT22;62581;47.342;7.908;2023-07-13T02:28:11;18.60;99.90
48836;DHT22;62581;47.342;7.908;2023-07-13T02:30:39;18.60;99.90
48836;DHT22;62581;47.342;7.908;2023-07-13T02:33:06;18.50;99.90
48836;DHT22;62581;47.342;7.908;2023-07-13T02:35:32;18.50;99.90
48836;DHT22;62581;47.342;7.908;2023-07-13T02:37:59;18.50;99.90
48836;DHT22;62581;47.342;7.908;2023-07-13T02:40:26;18.40;99.90
48836;DHT22;62581;47.342;7.908;2023-07-13T02:42:52;18.40;99.90
48836;DHT22;62581;47.342;7.908;2023-07-13T02:45:19;18.30;99.90
48836;DHT22;62581;47.342;7.908;2023-07-13T02:47:47;18.30;99.90
48836;DHT22;62581;47.342;7.908;2023-07-13T02:50:14;18.20;99.90
48836;DHT22;62581;47.342;7.908;2023-07-13T02:52:41;18.10;99.90
48836;DHT22;62581;47.342;7.908;2023-07-13T02:55:08;18.10;99.90
48836;DHT22;62581;47.342;7.908;2023-07-13T02:57:35;18.20;99.90
48836;DHT22;62581;47.342;7.908;2023-07-13T03:00:02;18.20;99.90
48836;DHT22;62581;47.342;7.908;2023-07-13T03:02:31;18.20;99.90
48836;DHT22;62581;47.342;7.908;2023-07-13T03:05:00;18.20;99.90
48836;DHT22;62581;47.342;7.908;2023-07-13T03:07:26;18.20;99.90
48836;DHT22;62581;47.342;7.908;2023-07-13T03:09:54;18.30;99.90
48836;DHT22;62581;47.342;7.908;2023-07-13T03:12:20;18.30;99.90
48836;DHT22;62581;47.342;7.908;2023-07-13T03:14:47;18.30;99.90
48836;DHT22;62581;47.342;7.908;2023-07-13T03:17:14;18.20;99.90
48836;DHT22;62581;47.342;7.908;2023-07-13T03:19:41;18.20;99.90
48836;DHT22;62581;47.342;7.908;2023-07-13T03:22:10;18.30;99.90
48836;DHT22;62581;47.342;7.908;2023-07-13T03:24:37;18.30;99.90
48836;DHT22;62581;47.342;7.908;2023-07-13T03:27:04;18.20;99.90
48836;DHT22;62581;47.342;7.908;2023-07-13T03:29:31;18.20;99.90
48836;DHT22;62581;47.342;7.908;2023-07-13T03:31:58;18.20;99.90
48836;DHT22;62581;47.342;7.908;2023-07-13T03:34:24;18.20;99.90
48836;DHT22;62581;47.342;7.908;2023-07-13T03:36:53;18.20;99.90
48836;DHT22;62581;47.342;7.908;2023-07-13T03:39:21;18.10;99.90
48836;DHT22;62581;47.342;7.908;2023-07-13T03:41:48;18.10;99.90
48836;DHT22;62581;47.342;7.908;2023-07-13T03:44:15;18.10;99.90
48836;DHT22;62581;47.342;7.908;2023-07-13T03:46:42;18.10;99.90
48836;DHT22;62581;47.342;7.908;2023-07-13T03:49:09;18.10;99.90
48836;DHT22;62581;47.342;7.908;2023-07-13T03:51:36;18.10;99.90
48836;DHT22;62581;47.342;7.908;2023-07-13T03:54:02;18.10;99.90
48836;DHT22;62581;47.342;7.908;2023-07-13T03:56:31;18.10;99.90
48836;DHT22;62581;47.342;7.908;2023-07-13T03:58:58;18.10;99.90
48836;DHT22;62581;47.342;7.908;2023-07-13T04:01:25;18.10;99.90
48836;DHT22;62581;47.342;7.908;2023-07-13T04:03:52;18.00;99.90
48836;DHT22;62581;47.342;7.908;2023-07-13T04:06:19;18.10;99.90
48836;DHT22;62581;47.342;7.908;2023-07-13T04:08:47;18.10;99.90
48836;DHT22;62581;47.342;7.908;2023-07-13T04:11:15;18.10;99.90
48836;DHT22;62581;47.342;7.908;2023-07-13T04:13:43;18.20;99.90
48836;DHT22;62581;47.342;7.908;2023-07-13T04:16:10;18.20;99.90
48836;DHT22;62581;47.342;7.908;2023-07-13T04:18:38;18.10;99.90
48836;DHT22;62581;47.342;7.908;2023-07-13T04:21:05;18.20;99.90
48836;DHT22;62581;47.342;7.908;2023-07-13T04:23:31;18.20;99.90
48836;DHT22;62581;47.342;7.908;2023-07-13T04:25:58;18.20;99.90
48836;DHT22;62581;47.342;7.908;2023-07-13T04:28:25;18.20;99.90
48836;DHT22;62581;47.342;7.908;2023-07-13T04:30:54;18.30;99.90
48836;DHT22;62581;47.342;7.908;2023-07-13T04:33:21;18.30;99.90
48836;DHT22;62581;47.342;7.908;2023-07-13T04:35:48;18.30;99.90
48836;DHT22;62581;47.342;7.908;2023-07-13T04:38:15;18.20;99.90
48836;DHT22;62581;47.342;7.908;2023-07-13T04:40:42;18.20;99.90
48836;DHT22;62581;47.342;7.908;2023-07-13T04:43:10;18.20;99.90
48836;DHT22;62581;47.342;7.908;2023-07-13T04:45:36;18.20;99.90
48836;DHT22;62581;47.342;7.908;2023-07-13T04:48:05;18.30;99.90
48836;DHT22;62581;47.342;7.908;2023-07-13T04:50:32;18.30;99.90
48836;DHT22;62581;47.342;7.908;2023-07-13T04:52:59;18.20;99.90
48836;DHT22;62581;47.342;7.908;2023-07-13T04:55:25;18.20;99.90
48836;DHT22;62581;47.342;7.908;2023-07-13T04:57:56;18.20;99.90
48836;DHT22;62581;47.342;7.908;2023-07-13T05:00:23;18.30;99.90
48836;DHT22;62581;47.342;7.908;2023-07-13T05:02:50;18.30;99.90
48836;DHT22;62581;47.342;7.908;2023-07-13T05:05:18;18.30;99.90
48836;DHT22;62581;47.342;7.908;2023-07-13T05:07:45;18.40;99.90
48836;DHT22;62581;47.342;7.908;2023-07-13T05:10:12;18.40;99.90
48836;DHT22;62581;47.342;7.908;2023-07-13T05:12:39;18.30;99.90
48836;DHT22;62581;47.342;7.908;2023-07-13T05:15:06;18.30;99.90
48836;DHT22;62581;47.342;7.908;2023-07-13T05:17:33;18.30;99.90
48836;DHT22;62581;47.342;7.908;2023-07-13T05:20:00;18.40;99.90
48836;DHT22;62581;47.342;7.908;2023-07-13T05:22:28;18.40;99.90
48836;DHT22;62581;47.342;7.908;2023-07-13T05:24:54;18.50;99.90
48836;DHT22;62581;47.342;7.908;2023-07-13T05:27:21;18.50;99.90
48836;DHT22;62581;47.342;7.908;2023-07-13T05:29:48;18.50;99.90
48836;DHT22;62581;47.342;7.908;2023-07-13T05:32:15;18.50;99.90
48836;DHT22;62581;47.342;7.908;2023-07-13T05:34:42;18.50;99.90
48836;DHT22;62581;47.342;7.908;2023-07-13T05:37:08;18.50;99.90
48836;DHT22;62581;47.342;7.908;2023-07-13T05:39:37;18.60;99.90
48836;DHT22;62581;47.342;7.908;2023-07-13T05:42:04;18.70;99.90
48836;DHT22;62581;47.342;7.908;2023-07-13T05:44:31;18.70;99.90
48836;DHT22;62581;47.342;7.908;2023-07-13T05:46:57;18.70;99.90
48836;DHT22;62581;47.342;7.908;2023-07-13T05:49:24;18.60;99.90
48836;DHT22;62581;47.342;7.908;2023-07-13T05:51:51;18.60;99.90
48836;DHT22;62581;47.342;7.908;2023-07-13T05:54:18;18.60;99.90
48836;DHT22;62581;47.342;7.908;2023-07-13T05:56:46;18.50;99.90
48836;DHT22;62581;47.342;7.908;2023-07-13T05:59:13;18.50;99.90
48836;DHT22;62581;47.342;7.908;2023-07-13T06:01:40;18.50;99.90
48836;DHT22;62581;47.342;7.908;2023-07-13T06:04:07;18.50;99.90
48836;DHT22;62581;47.342;7.908;2023-07-13T06:06:34;18.50;99.90
48836;DHT22;62581;47.342;7.908;2023-07-13T06:09:00;18.50;99.90
48836;DHT22;62581;47.342;7.908;2023-07-13T06:11:27;18.50;99.90
48836;DHT22;62581;47.342;7.908;2023-07-13T06:13:56;18.50;99.90
48836;DHT22;62581;47.342;7.908;2023-07-13T06:16:23;18.60;99.90
48836;DHT22;62581;47.342;7.908;2023-07-13T06:18:50;18.70;99.90
48836;DHT22;62581;47.342;7.908;2023-07-13T06:21:17;18.70;99.90
48836;DHT22;62581;47.342;7.908;2023-07-13T06:23:44;18.80;99.90
48836;DHT22;62581;47.342;7.908;2023-07-13T06:26:13;18.90;99.90
48836;DHT22;62581;47.342;7.908;2023-07-13T06:28:40;19.00;99.90
48836;DHT22;62581;47.342;7.908;2023-07-13T06:31:09;19.20;99.90
48836;DHT22;62581;47.342;7.908;2023-07-13T06:33:36;19.40;99.90
48836;DHT22;62581;47.342;7.908;2023-07-13T06:36:04;19.50;99.90
48836;DHT22;62581;47.342;7.908;2023-07-13T06:38:31;19.50;99.90
48836;DHT22;62581;47.342;7.908;2023-07-13T06:40:58;19.50;99.90
48836;DHT22;62581;47.342;7.908;2023-07-13T06:43:25;19.50;99.90
48836;DHT22;62581;47.342;7.908;2023-07-13T06:45:54;19.40;99.90
48836;DHT22;62581;47.342;7.908;2023-07-13T06:48:22;19.50;99.90
48836;DHT22;62581;47.342;7.908;2023-07-13T06:50:49;19.60;99.90
48836;DHT22;62581;47.342;7.908;2023-07-13T06:53:17;19.90;99.90
48836;DHT22;62581;47.342;7.908;2023-07-13T06:55:44;20.00;99.90
48836;DHT22;62581;47.342;7.908;2023-07-13T06:58:11;20.10;99.90
48836;DHT22;62581;47.342;7.908;2023-07-13T07:00:38;20.20;99.90
48836;DHT22;62581;47.342;7.908;2023-07-13T07:03:05;20.30;99.90
48836;DHT22;62581;47.342;7.908;2023-07-13T07:05:34;20.40;99.90
48836;DHT22;62581;47.342;7.908;2023-07-13T07:08:00;20.50;99.90
48836;DHT22;62581;47.342;7.908;2023-07-13T07:10:29;20.40;99.90
48836;DHT22;62581;47.342;7.908;2023-07-13T07:12:56;20.50;99.90
48836;DHT22;62581;47.342;7.908;2023-07-13T07:15:22;20.60;99.90
48836;DHT22;62581;47.342;7.908;2023-07-13T07:17:49;20.70;99.90
48836;DHT22;62581;47.342;7.908;2023-07-13T07:20:16;20.80;99.90
48836;DHT22;62581;47.342;7.908;2023-07-13T07:22:44;20.90;99.90
48836;DHT22;62581;47.342;7.908;2023-07-13T07:25:11;21.00;99.90
48836;DHT22;62581;47.342;7.908;2023-07-13T07:27:38;21.00;99.90
48836;DHT22;62581;47.342;7.908;2023-07-13T07:30:05;21.10;99.90
48836;DHT22;62581;47.342;7.908;2023-07-13T07:32:32;21.10;99.90
48836;DHT22;62581;47.342;7.908;2023-07-13T07:34:58;21.10;99.90
48836;DHT22;62581;47.342;7.908;2023-07-13T07:37:25;20.90;99.90
48836;DHT22;62581;47.342;7.908;2023-07-13T07:39:53;20.90;99.90
48836;DHT22;62581;47.342;7.908;2023-07-13T07:42:20;21.00;99.90
48836;DHT22;62581;47.342;7.908;2023-07-13T07:44:47;21.00;99.90
48836;DHT22;62581;47.342;7.908;2023-07-13T07:47:14;21.20;99.90
48836;DHT22;62581;47.342;7.908;2023-07-13T07:49:40;21.40;99.90
48836;DHT22;62581;47.342;7.908;2023-07-13T07:52:07;21.50;99.90
48836;DHT22;62581;47.342;7.908;2023-07-13T07:54:34;21.50;99.90
48836;DHT22;62581;47.342;7.908;2023-07-13T07:57:02;21.40;99.90
48836;DHT22;62581;47.342;7.908;2023-07-13T07:59:29;21.40;99.90
48836;DHT22;62581;47.342;7.908;2023-07-13T08:01:56;21.40;99.90
48836;DHT22;62581;47.342;7.908;2023-07-13T08:04:22;21.50;99.90
48836;DHT22;62581;47.342;7.908;2023-07-13T08:06:49;21.80;99.90
48836;DHT22;62581;47.342;7.908;2023-07-13T08:09:16;22.10;99.90
48836;DHT22;62581;47.342;7.908;2023-07-13T08:11:43;22.10;99.90
48836;DHT22;62581;47.342;7.908;2023-07-13T08:14:11;22.10;99.90
48836;DHT22;62581;47.342;7.908;2023-07-13T08:16:38;22.10;99.90
48836;DHT22;62581;47.342;7.908;2023-07-13T08:19:05;22.20;99.90
48836;DHT22;62581;47.342;7.908;2023-07-13T08:21:32;22.30;99.90
48836;DHT22;62581;47.342;7.908;2023-07-13T08:23:59;22.50;99.90
48836;DHT22;62581;47.342;7.908;2023-07-13T08:26:26;22.70;99.90
48836;DHT22;62581;47.342;7.908;2023-07-13T08:28:52;22.70;99.90
48836;DHT22;62581;47.342;7.908;2023-07-13T08:31:21;22.70;99.90
48836;DHT22;62581;47.342;7.908;2023-07-13T08:33:48;22.90;99.90
48836;DHT22;62581;47.342;7.908;2023-07-13T08:36:15;22.90;99.90
48836;DHT22;62581;47.342;7.908;2023-07-13T08:38:42;23.00;99.90
48836;DHT22;62581;47.342;7.908;2023-07-13T08:41:12;23.10;99.90
48836;DHT22;62581;47.342;7.908;2023-07-13T08:43:39;23.10;99.90
48836;DHT22;62581;47.342;7.908;2023-07-13T08:46:08;23.20;99.90
48836;DHT22;62581;47.342;7.908;2023-07-13T08:48:41;23.30;99.90
48836;DHT22;62581;47.342;7.908;2023-07-13T08:51:11;23.30;99.90
48836;DHT22;62581;47.342;7.908;2023-07-13T08:53:39;23.10;99.90
48836;DHT22;62581;47.342;7.908;2023-07-13T08:56:09;23.10;99.90
48836;DHT22;62581;47.342;7.908;2023-07-13T08:58:37;23.00;99.90
48836;DHT22;62581;47.342;7.908;2023-07-13T09:01:09;23.00;99.90
48836;DHT22;62581;47.342;7.908;2023-07-13T09:03:42;23.20;99.90
48836;DHT22;62581;47.342;7.908;2023-07-13T09:06:09;23.50;99.90
48836;DHT22;62581;47.342;7.908;2023-07-13T09:08:44;23.70;99.90
48836;DHT22;62581;47.342;7.908;2023-07-13T09:11:16;23.90;99.90
48836;DHT22;62581;47.342;7.908;2023-07-13T09:13:47;24.00;99.90
48836;DHT22;62581;47.342;7.908;2023-07-13T09:16:15;24.30;99.90
48836;DHT22;62581;47.342;7.908;2023-07-13T09:18:45;24.50;99.90
48836;DHT22;62581;47.342;7.908;2023-07-13T09:21:13;24.80;99.90
48836;DHT22;62581;47.342;7.908;2023-07-13T09:23:41;25.20;99.90
48836;DHT22;62581;47.342;7.908;2023-07-13T09:26:11;25.10;99.90
48836;DHT22;62581;47.342;7.908;2023-07-13T09:28:40;24.90;99.90
48836;DHT22;62581;47.342;7.908;2023-07-13T09:31:09;24.70;99.90
48836;DHT22;62581;47.342;7.908;2023-07-13T09:33:37;24.90;99.90
48836;DHT22;62581;47.342;7.908;2023-07-13T09:36:13;24.90;99.90
48836;DHT22;62581;47.342;7.908;2023-07-13T09:38:44;25.10;99.90
48836;DHT22;62581;47.342;7.908;2023-07-13T09:41:15;25.20;99.90
48836;DHT22;62581;47.342;7.908;2023-07-13T09:44:01;25.30;99.90
48836;DHT22;62581;47.342;7.908;2023-07-13T09:46:28;25.30;99.90
48836;DHT22;62581;47.342;7.908;2023-07-13T09:48:55;25.40;99.90
48836;DHT22;62581;47.342;7.908;2023-07-13T09:51:24;25.30;99.90
48836;DHT22;62581;47.342;7.908;2023-07-13T09:53:50;25.40;99.90
48836;DHT22;62581;47.342;7.908;2023-07-13T09:56:20;25.50;99.90
48836;DHT22;62581;47.342;7.908;2023-07-13T09:58:47;25.40;99.90
48836;DHT22;62581;47.342;7.908;2023-07-13T10:01:15;25.20;99.90
48836;DHT22;62581;47.342;7.908;2023-07-13T10:03:51;25.10;99.90
48836;DHT22;62581;47.342;7.908;2023-07-13T10:06:19;25.10;99.90
48836;DHT22;62581;47.342;7.908;2023-07-13T10:08:49;24.90;99.90
48836;DHT22;62581;47.342;7.908;2023-07-13T10:11:17;24.90;99.90
48836;DHT22;62581;47.342;7.908;2023-07-13T10:13:46;25.10;99.90
48836;DHT22;62581;47.342;7.908;2023-07-13T10:16:14;25.10;99.90
48836;DHT22;62581;47.342;7.908;2023-07-13T10:18:43;25.20;99.90
48836;DHT22;62581;47.342;7.908;2023-07-13T10:21:12;25.20;99.90
48836;DHT22;62581;47.342;7.908;2023-07-13T10:23:40;25.00;99.90
48836;DHT22;62581;47.342;7.908;2023-07-13T10:26:11;25.00;99.90
48836;DHT22;62581;47.342;7.908;2023-07-13T10:28:39;25.10;99.90
48836;DHT22;62581;47.342;7.908;2023-07-13T10:31:09;25.20;99.90
48836;DHT22;62581;47.342;7.908;2023-07-13T10:33:37;25.50;99.90
48836;DHT22;62581;47.342;7.908;2023-07-13T10:36:07;25.80;99.90
48836;DHT22;62581;47.342;7.908;2023-07-13T10:38:38;25.70;99.90
48836;DHT22;62581;47.342;7.908;2023-07-13T10:41:07;25.60;99.90
48836;DHT22;62581;47.342;7.908;2023-07-13T10:43:37;25.70;99.90
48836;DHT22;62581;47.342;7.908;2023-07-13T10:46:06;25.60;99.90
48836;DHT22;62581;47.342;7.908;2023-07-13T10:48:35;25.60;99.90
48836;DHT22;62581;47.342;7.908;2023-07-13T10:51:03;25.40;99.90
48836;DHT22;62581;47.342;7.908;2023-07-13T10:53:31;25.30;99.90
48836;DHT22;62581;47.342;7.908;2023-07-13T10:55:59;25.10;99.90
48836;DHT22;62581;47.342;7.908;2023-07-13T10:58:28;25.10;99.90
48836;DHT22;62581;47.342;7.908;2023-07-13T11:01:01;25.10;99.90
48836;DHT22;62581;47.342;7.908;2023-07-13T11:03:30;25.10;99.90
48836;DHT22;62581;47.342;7.908;2023-07-13T11:06:04;25.20;99.90
48836;DHT22;62581;47.342;7.908;2023-07-13T11:08:34;25.30;99.90
48836;DHT22;62581;47.342;7.908;2023-07-13T11:11:07;25.30;99.90
48836;DHT22;62581;47.342;7.908;2023-07-13T11:13:57;25.30;99.90
48836;DHT22;62581;47.342;7.908;2023-07-13T11:16:43;25.40;99.90
48836;DHT22;62581;47.342;7.908;2023-07-13T11:22:12;25.40;99.90
48836;DHT22;62581;47.342;7.908;2023-07-13T11:24:52;25.10;99.90
48836;DHT22;62581;47.342;7.908;2023-07-13T11:27:26;25.00;99.90
48836;DHT22;62581;47.342;7.908;2023-07-13T11:30:06;25.10;99.90
48836;DHT22;62581;47.342;7.908;2023-07-13T11:32:35;25.00;99.90
48836;DHT22;62581;47.342;7.908;2023-07-13T11:35:02;24.90;99.90
48836;DHT22;62581;47.342;7.908;2023-07-13T11:37:29;24.90;99.90
48836;DHT22;62581;47.342;7.908;2023-07-13T11:39:57;24.80;99.90
48836;DHT22;62581;47.342;7.908;2023-07-13T11:42:24;24.90;99.90
48836;DHT22;62581;47.342;7.908;2023-07-13T11:44:52;24.80;99.90
48836;DHT22;62581;47.342;7.908;2023-07-13T11:47:22;24.80;99.90
48836;DHT22;62581;47.342;7.908;2023-07-13T11:49:52;24.80;99.90
48836;DHT22;62581;47.342;7.908;2023-07-13T11:52:23;24.80;99.90
48836;DHT22;62581;47.342;7.908;2023-07-13T11:54:53;24.90;99.90
48836;DHT22;62581;47.342;7.908;2023-07-13T11:57:23;25.00;99.90
48836;DHT22;62581;47.342;7.908;2023-07-13T11:59:51;25.30;99.90
48836;DHT22;62581;47.342;7.908;2023-07-13T12:02:22;25.60;99.90
48836;DHT22;62581;47.342;7.908;2023-07-13T12:04:54;26.00;99.90
48836;DHT22;62581;47.342;7.908;2023-07-13T12:07:22;26.30;99.90
48836;DHT22;62581;47.342;7.908;2023-07-13T12:09:48;26.50;99.90
48836;DHT22;62581;47.342;7.908;2023-07-13T12:12:17;26.60;99.90
48836;DHT22;62581;47.342;7.908;2023-07-13T12:14:44;26.50;99.90
48836;DHT22;62581;47.342;7.908;2023-07-13T12:17:16;26.70;99.90
48836;DHT22;62581;47.342;7.908;2023-07-13T12:19:44;26.80;99.90
48836;DHT22;62581;47.342;7.908;2023-07-13T12:22:13;26.90;99.90
48836;DHT22;62581;47.342;7.908;2023-07-13T12:24:40;26.90;99.90
48836;DHT22;62581;47.342;7.908;2023-07-13T12:27:15;27.00;99.90
48836;DHT22;62581;47.342;7.908;2023-07-13T12:29:48;27.10;99.90
48836;DHT22;62581;47.342;7.908;2023-07-13T12:32:16;27.30;99.90
48836;DHT22;62581;47.342;7.908;2023-07-13T12:34:51;27.50;99.90
48836;DHT22;62581;47.342;7.908;2023-07-13T12:37:19;27.70;99.90
48836;DHT22;62581;47.342;7.908;2023-07-13T12:39:46;27.00;99.90
48836;DHT22;62581;47.342;7.908;2023-07-13T12:42:18;26.90;99.90
48836;DHT22;62581;47.342;7.908;2023-07-13T12:44:46;26.70;99.90
48836;DHT22;62581;47.342;7.908;2023-07-13T12:47:14;26.60;99.90
48836;DHT22;62581;47.342;7.908;2023-07-13T12:49:42;26.30;99.90
48836;DHT22;62581;47.342;7.908;2023-07-13T12:52:10;26.10;99.90
48836;DHT22;62581;47.342;7.908;2023-07-13T12:54:42;25.70;99.90
48836;DHT22;62581;47.342;7.908;2023-07-13T12:57:18;25.50;99.90
48836;DHT22;62581;47.342;7.908;2023-07-13T12:59:45;25.60;99.90
48836;DHT22;62581;47.342;7.908;2023-07-13T13:02:25;25.80;99.90
48836;DHT22;62581;47.342;7.908;2023-07-13T13:04:53;25.80;99.90
48836;DHT22;62581;47.342;7.908;2023-07-13T13:07:21;25.90;99.90
48836;DHT22;62581;47.342;7.908;2023-07-13T13:09:49;26.10;99.90
48836;DHT22;62581;47.342;7.908;2023-07-13T13:12:16;26.40;99.90
48836;DHT22;62581;47.342;7.908;2023-07-13T13:14:43;26.70;99.90
48836;DHT22;62581;47.342;7.908;2023-07-13T13:17:15;28.30;99.90
48836;DHT22;62581;47.342;7.908;2023-07-13T13:19:44;28.90;98.60
48836;DHT22;62581;47.342;7.908;2023-07-13T13:22:11;28.90;99.90
48836;DHT22;62581;47.342;7.908;2023-07-13T13:24:39;30.40;98.60
48836;DHT22;62581;47.342;7.908;2023-07-13T13:27:09;30.30;95.90
48836;DHT22;62581;47.342;7.908;2023-07-13T13:29:41;29.80;96.60
48836;DHT22;62581;47.342;7.908;2023-07-13T13:32:09;30.40;93.40
48836;DHT22;62581;47.342;7.908;2023-07-13T13:34:37;31.00;93.20
48836;DHT22;62581;47.342;7.908;2023-07-13T13:37:04;30.60;91.60
48836;DHT22;62581;47.342;7.908;2023-07-13T13:39:36;30.00;93.00
48836;DHT22;62581;47.342;7.908;2023-07-13T13:42:04;29.80;92.50
48836;DHT22;62581;47.342;7.908;2023-07-13T13:44:32;29.80;93.30
48836;DHT22;62581;47.342;7.908;2023-07-13T13:46:59;31.70;91.20
48836;DHT22;62581;47.342;7.908;2023-07-13T13:49:26;34.30;84.30
48836;DHT22;62581;47.342;7.908;2023-07-13T13:51:53;36.10;76.60
48836;DHT22;62581;47.342;7.908;2023-07-13T13:54:21;37.80;68.60
48836;DHT22;62581;47.342;7.908;2023-07-13T13:56:49;38.00;63.50
48836;DHT22;62581;47.342;7.908;2023-07-13T13:59:16;38.70;62.80
48836;DHT22;62581;47.342;7.908;2023-07-13T14:01:44;37.00;62.00
48836;DHT22;62581;47.342;7.908;2023-07-13T14:04:14;36.60;62.00
48836;DHT22;62581;47.342;7.908;2023-07-13T14:06:43;37.00;62.10
48836;DHT22;62581;47.342;7.908;2023-07-13T14:09:10;37.30;59.60
48836;DHT22;62581;47.342;7.908;2023-07-13T14:11:37;36.30;62.50
48836;DHT22;62581;47.342;7.908;2023-07-13T14:14:04;35.10;63.30
48836;DHT22;62581;47.342;7.908;2023-07-13T14:16:31;35.20;63.40
48836;DHT22;62581;47.342;7.908;2023-07-13T14:19:00;34.40;64.90
48836;DHT22;62581;47.342;7.908;2023-07-13T14:21:28;32.50;67.60
48836;DHT22;62581;47.342;7.908;2023-07-13T14:23:55;31.20;70.30
48836;DHT22;62581;47.342;7.908;2023-07-13T14:26:22;30.30;73.10
48836;DHT22;62581;47.342;7.908;2023-07-13T14:28:50;29.10;72.80
48836;DHT22;62581;47.342;7.908;2023-07-13T14:31:18;28.80;74.50
48836;DHT22;62581;47.342;7.908;2023-07-13T14:33:45;28.50;77.30
48836;DHT22;62581;47.342;7.908;2023-07-13T14:36:18;28.20;77.80
48836;DHT22;62581;47.342;7.908;2023-07-13T14:38:48;28.30;78.70
48836;DHT22;62581;47.342;7.908;2023-07-13T14:41:15;28.50;79.90
48836;DHT22;62581;47.342;7.908;2023-07-13T14:43:42;28.40;79.00
48836;DHT22;62581;47.342;7.908;2023-07-13T14:46:09;28.00;77.50
48836;DHT22;62581;47.342;7.908;2023-07-13T14:48:45;27.80;77.00
48836;DHT22;62581;47.342;7.908;2023-07-13T14:51:11;28.00;79.90
48836;DHT22;62581;47.342;7.908;2023-07-13T14:53:40;28.00;78.30
48836;DHT22;62581;47.342;7.908;2023-07-13T14:56:09;27.90;77.40
48836;DHT22;62581;47.342;7.908;2023-07-13T14:58:36;27.20;78.60
48836;DHT22;62581;47.342;7.908;2023-07-13T15:01:07;27.00;79.70
48836;DHT22;62581;47.342;7.908;2023-07-13T15:03:37;27.30;80.20
48836;DHT22;62581;47.342;7.908;2023-07-13T15:06:08;27.60;80.20
48836;DHT22;62581;47.342;7.908;2023-07-13T15:08:35;27.80;78.40
48836;DHT22;62581;47.342;7.908;2023-07-13T15:11:03;29.30;76.90
48836;DHT22;62581;47.342;7.908;2023-07-13T15:13:30;29.60;75.70
48836;DHT22;62581;47.342;7.908;2023-07-13T15:15:57;29.30;73.90
48836;DHT22;62581;47.342;7.908;2023-07-13T15:18:24;28.80;75.40
48836;DHT22;62581;47.342;7.908;2023-07-13T15:20:52;28.60;76.10
48836;DHT22;62581;47.342;7.908;2023-07-13T15:23:23;28.60;76.40
48836;DHT22;62581;47.342;7.908;2023-07-13T15:25:51;28.40;76.20
48836;DHT22;62581;47.342;7.908;2023-07-13T15:28:19;28.30;74.80
48836;DHT22;62581;47.342;7.908;2023-07-13T15:30:46;28.10;76.10
48836;DHT22;62581;47.342;7.908;2023-07-13T15:33:15;27.90;76.50
48836;DHT22;62581;47.342;7.908;2023-07-13T15:35:43;27.60;75.10
48836;DHT22;62581;47.342;7.908;2023-07-13T15:38:14;27.60;76.60